^^
Station Historical Data
Daily Summary for March 22, 2017 Units:  Both    English   Metric
« Previous Day
Next Day »
Daily Weekly Monthly Yearly Custom
  High: Low: Average:
Temperature: 81.0 °F /  27.2 °C 63.1 °F /  17.3 °C 70.1 °F /  21.2 °C
Dew Point: 58.6 °F /  14.8 °C 50.4 °F /  10.2 °C 55 °F /  12.8 °C
Humidity: 75% 37% 60%
Wind Speed: 11.0mph /  17.7km/h - 1.7mph /  2.7km/h
Wind Gust: 16.0mph /  25.7km/h - -
Wind- - ESE
Pressure: 29.95 in /  1014.1 hPa 29.81 in /  1009.4 hPa -
Precipitation: 0.00 in /  0 mm    
Historical Graphs
 
 
Tabular Data for March 22, 2017
Time Temperature Dew Point Pressure Wind Wind Speed Wind Gust Humidity Rainfall Rate (Hourly) solar Conditions
00:04 66.6 °F /  19.2 °C 53.6 °F /  12 °C 29.92in /  1013.1hPa Calm   2.0mph /  3.2km/h 63% 0.00in /  0mm 0.0 W/m2
00:10 66.6 °F /  19.2 °C 53.1 °F /  11.7 °C 29.91in /  1012.8hPa Calm   2.0mph /  3.2km/h 62% 0.00in /  0mm 0.0 W/m2
00:16 66.7 °F /  19.3 °C 53.2 °F /  11.8 °C 29.91in /  1012.8hPa Calm   1.0mph /  1.6km/h 62% 0.00in /  0mm 0.0 W/m2
00:22 66.7 °F /  19.3 °C 52.9 °F /  11.6 °C 29.91in /  1012.8hPa Calm   2.0mph /  3.2km/h 61% 0.00in /  0mm 0.0 W/m2
00:28 66.9 °F /  19.4 °C 53.1 °F /  11.7 °C 29.91in /  1012.8hPa Calm   1.0mph /  1.6km/h 61% 0.00in /  0mm 0.0 W/m2
00:34 66.9 °F /  19.4 °C 53.1 °F /  11.7 °C 29.91in /  1012.8hPa Calm     61% 0.00in /  0mm 0.0 W/m2
00:40 66.9 °F /  19.4 °C 53.1 °F /  11.7 °C 29.91in /  1012.8hPa Calm   1.0mph /  1.6km/h 61% 0.00in /  0mm 0.0 W/m2
00:46 66.9 °F /  19.4 °C 52.5 °F /  11.4 °C 29.91in /  1012.8hPa ENE 0.9mph /  1.4km/h 4.0mph /  6.4km/h 60% 0.00in /  0mm 0.0 W/m2
00:52 66.9 °F /  19.4 °C 52.5 °F /  11.4 °C 29.91in /  1012.8hPa Calm   2.0mph /  3.2km/h 60% 0.00in /  0mm 0.0 W/m2
00:59 66.9 °F /  19.4 °C 52.2 °F /  11.2 °C 29.91in /  1012.8hPa East 0.9mph /  1.4km/h 5.0mph /  8km/h 59% 0.00in /  0mm 0.0 W/m2
01:05 66.9 °F /  19.4 °C 52.2 °F /  11.2 °C 29.91in /  1012.8hPa Calm   2.0mph /  3.2km/h 59% 0.00in /  0mm 0.0 W/m2
01:11 67.1 °F /  19.5 °C 52.3 °F /  11.3 °C 29.91in /  1012.8hPa ENE 2.0mph /  3.2km/h 5.0mph /  8km/h 59% 0.00in /  0mm 0.0 W/m2
01:17 67.1 °F /  19.5 °C 52.3 °F /  11.3 °C 29.91in /  1012.8hPa NNE 2.0mph /  3.2km/h 5.0mph /  8km/h 59% 0.00in /  0mm 0.0 W/m2
01:23 67.1 °F /  19.5 °C 52.3 °F /  11.3 °C 29.91in /  1012.8hPa Calm   4.0mph /  6.4km/h 59% 0.00in /  0mm 0.0 W/m2
01:29 67.1 °F /  19.5 °C 52.3 °F /  11.3 °C 29.91in /  1012.8hPa NE 0.9mph /  1.4km/h 2.0mph /  3.2km/h 59% 0.00in /  0mm 0.0 W/m2
01:35 67.1 °F /  19.5 °C 52.3 °F /  11.3 °C 29.91in /  1012.8hPa ENE 0.9mph /  1.4km/h 3.0mph /  4.8km/h 59% 0.00in /  0mm 0.0 W/m2
01:42 66.9 °F /  19.4 °C 52.2 °F /  11.2 °C 29.90in /  1012.4hPa East 0.9mph /  1.4km/h 2.0mph /  3.2km/h 59% 0.00in /  0mm 0.0 W/m2
01:48 66.9 °F /  19.4 °C 52.2 °F /  11.2 °C 29.91in /  1012.8hPa ENE 2.0mph /  3.2km/h 4.0mph /  6.4km/h 59% 0.00in /  0mm 0.0 W/m2
01:54 66.9 °F /  19.4 °C 52.2 °F /  11.2 °C 29.91in /  1012.8hPa ENE 0.9mph /  1.4km/h 6.0mph /  9.7km/h 59% 0.00in /  0mm 0.0 W/m2
02:00 66.9 °F /  19.4 °C 52.2 °F /  11.2 °C 29.91in /  1012.8hPa East 0.9mph /  1.4km/h 5.0mph /  8km/h 59% 0.00in /  0mm 0.0 W/m2
02:06 66.9 °F /  19.4 °C 52.5 °F /  11.4 °C 29.91in /  1012.8hPa ESE 0.9mph /  1.4km/h 6.0mph /  9.7km/h 60% 0.00in /  0mm 0.0 W/m2
02:12 66.9 °F /  19.4 °C 52.5 °F /  11.4 °C 29.91in /  1012.8hPa Calm   5.0mph /  8km/h 60% 0.00in /  0mm 0.0 W/m2
02:18 66.9 °F /  19.4 °C 52.5 °F /  11.4 °C 29.91in /  1012.8hPa ESE 2.0mph /  3.2km/h 4.0mph /  6.4km/h 60% 0.00in /  0mm 0.0 W/m2
02:24 66.9 °F /  19.4 °C 53.1 °F /  11.7 °C 29.91in /  1012.8hPa Calm   5.0mph /  8km/h 61% 0.00in /  0mm 0.0 W/m2
02:31 66.7 °F /  19.3 °C 52.9 °F /  11.6 °C 29.91in /  1012.8hPa East 6.0mph /  9.7km/h 6.0mph /  9.7km/h 61% 0.00in /  0mm 0.0 W/m2
02:43 66.6 °F /  19.2 °C 53.1 °F /  11.7 °C 29.91in /  1012.8hPa NE 2.0mph /  3.2km/h 6.0mph /  9.7km/h 62% 0.00in /  0mm 0.0 W/m2
02:49 66.6 °F /  19.2 °C 53.1 °F /  11.7 °C 29.91in /  1012.8hPa East 2.9mph /  4.7km/h 7.0mph /  11.3km/h 62% 0.00in /  0mm 0.0 W/m2
02:55 66.6 °F /  19.2 °C 53.6 °F /  12 °C 29.91in /  1012.8hPa East 2.9mph /  4.7km/h 7.0mph /  11.3km/h 63% 0.00in /  0mm 0.0 W/m2
03:01 66.4 °F /  19.1 °C 53.4 °F /  11.9 °C 29.90in /  1012.4hPa Calm   9.0mph /  14.5km/h 63% 0.00in /  0mm 0.0 W/m2
03:07 66.2 °F /  19 °C 53.6 °F /  12 °C 29.91in /  1012.8hPa SSW 0.9mph /  1.4km/h 13.0mph /  20.9km/h 64% 0.00in /  0mm 0.0 W/m2
03:14 66.0 °F /  18.9 °C 53.4 °F /  11.9 °C 29.91in /  1012.8hPa NNE 2.9mph /  4.7km/h 6.0mph /  9.7km/h 64% 0.00in /  0mm 0.0 W/m2
03:20 65.8 °F /  18.8 °C 53.2 °F /  11.8 °C 29.90in /  1012.4hPa NE 8.1mph /  13km/h 8.1mph /  13km/h 64% 0.00in /  0mm 0.0 W/m2
03:26 65.7 °F /  18.7 °C 53.6 °F /  12 °C 29.91in /  1012.8hPa East 6.0mph /  9.7km/h 8.0mph /  12.9km/h 65% 0.00in /  0mm 0.0 W/m2
03:32 65.5 °F /  18.6 °C 53.8 °F /  12.1 °C 29.90in /  1012.4hPa ENE 0.9mph /  1.4km/h 6.0mph /  9.7km/h 66% 0.00in /  0mm 0.0 W/m2
03:38 65.1 °F /  18.4 °C 54.0 °F /  12.2 °C 29.91in /  1012.8hPa ESE 0.9mph /  1.4km/h 7.0mph /  11.3km/h 67% 0.00in /  0mm 0.0 W/m2
03:44 65.1 °F /  18.4 °C 54.0 °F /  12.2 °C 29.90in /  1012.4hPa NNE 4.0mph /  6.4km/h 9.0mph /  14.5km/h 67% 0.00in /  0mm 0.0 W/m2
03:50 64.9 °F /  18.3 °C 54.1 °F /  12.3 °C 29.91in /  1012.8hPa East 6.0mph /  9.7km/h 10.0mph /  16.1km/h 68% 0.00in /  0mm 0.0 W/m2
03:56 64.9 °F /  18.3 °C 54.1 °F /  12.3 °C 29.90in /  1012.4hPa NE 2.0mph /  3.2km/h 9.0mph /  14.5km/h 68% 0.00in /  0mm 0.0 W/m2
04:02 64.9 °F /  18.3 °C 54.1 °F /  12.3 °C 29.90in /  1012.4hPa SSE 4.0mph /  6.4km/h 7.0mph /  11.3km/h 68% 0.00in /  0mm 0.0 W/m2
04:08 64.9 °F /  18.3 °C 54.5 °F /  12.5 °C 29.90in /  1012.4hPa Calm   7.0mph /  11.3km/h 69% 0.00in /  0mm 0.0 W/m2
04:14 64.8 °F /  18.2 °C 54.3 °F /  12.4 °C 29.90in /  1012.4hPa South 0.9mph /  1.4km/h 9.0mph /  14.5km/h 69% 0.00in /  0mm 0.0 W/m2
04:20 64.8 °F /  18.2 °C 54.3 °F /  12.4 °C 29.90in /  1012.4hPa ENE 2.9mph /  4.7km/h 10.0mph /  16.1km/h 69% 0.00in /  0mm 0.0 W/m2
04:27 64.6 °F /  18.1 °C 54.1 °F /  12.3 °C 29.90in /  1012.4hPa North 2.0mph /  3.2km/h 5.0mph /  8km/h 69% 0.00in /  0mm 0.0 W/m2
04:32 64.6 °F /  18.1 °C 54.5 °F /  12.5 °C 29.90in /  1012.4hPa East 2.0mph /  3.2km/h 5.0mph /  8km/h 70% 0.00in /  0mm 0.0 W/m2
04:39 64.4 °F /  18 °C 54.3 °F /  12.4 °C 29.91in /  1012.8hPa NE 4.9mph /  7.9km/h 5.0mph /  8km/h 70% 0.00in /  0mm 0.0 W/m2
04:45 64.2 °F /  17.9 °C 54.3 °F /  12.4 °C 29.91in /  1012.8hPa NE 2.9mph /  4.7km/h 4.0mph /  6.4km/h 70% 0.00in /  0mm 0.0 W/m2
04:51 64.0 °F /  17.8 °C 54.5 °F /  12.5 °C 29.91in /  1012.8hPa North 4.9mph /  7.9km/h 6.0mph /  9.7km/h 71% 0.00in /  0mm 0.0 W/m2
04:57 63.9 °F /  17.7 °C 54.3 °F /  12.4 °C 29.91in /  1012.8hPa North 2.0mph /  3.2km/h 5.0mph /  8km/h 71% 0.00in /  0mm 0.0 W/m2
05:03 63.9 °F /  17.7 °C 54.7 °F /  12.6 °C 29.91in /  1012.8hPa Calm   3.0mph /  4.8km/h 72% 0.00in /  0mm 0.0 W/m2
05:09 63.7 °F /  17.6 °C 54.5 °F /  12.5 °C 29.91in /  1012.8hPa NE 2.0mph /  3.2km/h 4.0mph /  6.4km/h 72% 0.00in /  0mm 0.0 W/m2
05:15 63.7 °F /  17.6 °C 54.5 °F /  12.5 °C 29.91in /  1012.8hPa East 0.9mph /  1.4km/h 3.0mph /  4.8km/h 72% 0.00in /  0mm 0.0 W/m2
05:21 63.7 °F /  17.6 °C 54.5 °F /  12.5 °C 29.91in /  1012.8hPa East 2.0mph /  3.2km/h 2.0mph /  3.2km/h 72% 0.00in /  0mm 0.0 W/m2
05:27 63.5 °F /  17.5 °C 54.3 °F /  12.4 °C 29.91in /  1012.8hPa Calm   1.0mph /  1.6km/h 72% 0.00in /  0mm 0.0 W/m2
05:33 63.5 °F /  17.5 °C 54.7 °F /  12.6 °C 29.91in /  1012.8hPa Calm   2.0mph /  3.2km/h 73% 0.00in /  0mm 0.0 W/m2
05:39 63.3 °F /  17.4 °C 54.5 °F /  12.5 °C 29.91in /  1012.8hPa Calm   1.0mph /  1.6km/h 73% 0.00in /  0mm 0.0 W/m2
05:45 63.3 °F /  17.4 °C 54.5 °F /  12.5 °C 29.91in /  1012.8hPa Calm   1.0mph /  1.6km/h 73% 0.00in /  0mm 0.0 W/m2
05:51 63.3 °F /  17.4 °C 54.5 °F /  12.5 °C 29.91in /  1012.8hPa Calm   1.0mph /  1.6km/h 73% 0.00in /  0mm 0.0 W/m2
05:57 63.3 °F /  17.4 °C 54.5 °F /  12.5 °C 29.91in /  1012.8hPa Calm   1.0mph /  1.6km/h 73% 0.00in /  0mm 0.0 W/m2
06:03 63.3 °F /  17.4 °C 54.9 °F /  12.7 °C 29.91in /  1012.8hPa Calm     74% 0.00in /  0mm 0.0 W/m2
06:09 63.1 °F /  17.3 °C 54.7 °F /  12.6 °C 29.91in /  1012.8hPa Calm   1.0mph /  1.6km/h 74% 0.00in /  0mm 0.0 W/m2
06:15 63.1 °F /  17.3 °C 54.7 °F /  12.6 °C 29.92in /  1013.1hPa Calm     74% 0.00in /  0mm 0.0 W/m2
06:21 63.1 °F /  17.3 °C 54.7 °F /  12.6 °C 29.92in /  1013.1hPa Calm   1.0mph /  1.6km/h 74% 0.00in /  0mm 0.0 W/m2
06:27 63.1 °F /  17.3 °C 54.7 °F /  12.6 °C 29.92in /  1013.1hPa Calm   1.0mph /  1.6km/h 74% 0.00in /  0mm 0.0 W/m2
06:33 63.1 °F /  17.3 °C 54.7 °F /  12.6 °C 29.92in /  1013.1hPa Calm   1.0mph /  1.6km/h 74% 0.00in /  0mm 0.0 W/m2
06:39 63.1 °F /  17.3 °C 55.0 °F /  12.8 °C 29.92in /  1013.1hPa Calm   2.0mph /  3.2km/h 75% 0.00in /  0mm 0.0 W/m2
06:45 63.1 °F /  17.3 °C 54.7 °F /  12.6 °C 29.92in /  1013.1hPa Calm   2.0mph /  3.2km/h 74% 0.00in /  0mm 0.0 W/m2
06:51 63.3 °F /  17.4 °C 54.9 °F /  12.7 °C 29.92in /  1013.1hPa Calm   1.0mph /  1.6km/h 74% 0.00in /  0mm 0.0 W/m2
06:57 63.3 °F /  17.4 °C 54.9 °F /  12.7 °C 29.92in /  1013.1hPa NE 0.9mph /  1.4km/h 1.0mph /  1.6km/h 74% 0.00in /  0mm 0.0 W/m2
07:03 63.3 °F /  17.4 °C 54.9 °F /  12.7 °C 29.93in /  1013.4hPa Calm     74% 0.00in /  0mm 5.0 W/m2
07:09 63.3 °F /  17.4 °C 54.9 °F /  12.7 °C 29.92in /  1013.1hPa Calm   2.0mph /  3.2km/h 74% 0.00in /  0mm 9.0 W/m2
07:15 63.3 °F /  17.4 °C 54.9 °F /  12.7 °C 29.92in /  1013.1hPa ESE 0.9mph /  1.4km/h 2.0mph /  3.2km/h 74% 0.00in /  0mm 14.0 W/m2
07:21 63.3 °F /  17.4 °C 55.2 °F /  12.9 °C 29.93in /  1013.4hPa Calm   2.0mph /  3.2km/h 75% 0.00in /  0mm 21.0 W/m2
07:27 63.5 °F /  17.5 °C 55.4 °F /  13 °C 29.93in /  1013.4hPa Calm     75% 0.00in /  0mm 30.0 W/m2
07:33 63.7 °F /  17.6 °C 55.2 °F /  12.9 °C 29.93in /  1013.4hPa Calm   1.0mph /  1.6km/h 74% 0.00in /  0mm 35.0 W/m2
07:39 63.7 °F /  17.6 °C 55.6 °F /  13.1 °C 29.93in /  1013.4hPa Calm     75% 0.00in /  0mm 46.0 W/m2
07:45 63.9 °F /  17.7 °C 55.8 °F /  13.2 °C 29.93in /  1013.4hPa Calm   2.0mph /  3.2km/h 75% 0.00in /  0mm 54.0 W/m2
07:51 63.9 °F /  17.7 °C 55.8 °F /  13.2 °C 29.93in /  1013.4hPa Calm   1.0mph /  1.6km/h 75% 0.00in /  0mm 63.0 W/m2
07:59 64.2 °F /  17.9 °C 55.8 °F /  13.2 °C 29.93in /  1013.4hPa Calm   3.0mph /  4.8km/h 74% 0.00in /  0mm 77.0 W/m2
08:05 64.4 °F /  18 °C 55.9 °F /  13.3 °C 29.93in /  1013.4hPa East 2.0mph /  3.2km/h 3.0mph /  4.8km/h 74% 0.00in /  0mm 83.0 W/m2
08:11 64.6 °F /  18.1 °C 55.8 °F /  13.2 °C 29.94in /  1013.8hPa Calm   5.0mph /  8km/h 73% 0.00in /  0mm 90.0 W/m2
08:18 64.8 °F /  18.2 °C 55.9 °F /  13.3 °C 29.94in /  1013.8hPa Calm   4.0mph /  6.4km/h 73% 0.00in /  0mm 102.0 W/m2
08:23 65.1 °F /  18.4 °C 56.3 °F /  13.5 °C 29.94in /  1013.8hPa ESE 2.9mph /  4.7km/h 3.0mph /  4.8km/h 73% 0.00in /  0mm 111.0 W/m2
08:30 65.5 °F /  18.6 °C 56.3 °F /  13.5 °C 29.94in /  1013.8hPa Calm   4.0mph /  6.4km/h 72% 0.00in /  0mm 118.0 W/m2
08:35 65.7 °F /  18.7 °C 56.3 °F /  13.5 °C 29.95in /  1014.1hPa Calm   2.0mph /  3.2km/h 72% 0.00in /  0mm 128.0 W/m2
08:42 65.8 °F /  18.8 °C 56.1 °F /  13.4 °C 29.95in /  1014.1hPa Calm   8.0mph /  12.9km/h 71% 0.00in /  0mm 134.0 W/m2
08:48 66.2 °F /  19 °C 56.5 °F /  13.6 °C 29.95in /  1014.1hPa SE 2.0mph /  3.2km/h 3.0mph /  4.8km/h 71% 0.00in /  0mm 151.0 W/m2
08:54 66.4 °F /  19.1 °C 56.7 °F /  13.7 °C 29.95in /  1014.1hPa East 0.9mph /  1.4km/h 5.0mph /  8km/h 71% 0.00in /  0mm 158.0 W/m2
09:00 66.6 °F /  19.2 °C 56.8 °F /  13.8 °C 29.95in /  1014.1hPa ESE 2.9mph /  4.7km/h 7.0mph /  11.3km/h 71% 0.00in /  0mm 169.0 W/m2
09:06 66.7 °F /  19.3 °C 57.0 °F /  13.9 °C 29.95in /  1014.1hPa Calm   4.0mph /  6.4km/h 71% 0.00in /  0mm 179.0 W/m2
09:12 67.1 °F /  19.5 °C 57.0 °F /  13.9 °C 29.94in /  1013.8hPa Calm   5.0mph /  8km/h 70% 0.00in /  0mm 202.0 W/m2
09:18 67.5 °F /  19.7 °C 57.4 °F /  14.1 °C 29.94in /  1013.8hPa East 4.0mph /  6.4km/h 4.0mph /  6.4km/h 70% 0.00in /  0mm 229.0 W/m2
09:24 67.6 °F /  19.8 °C 57.6 °F /  14.2 °C 29.94in /  1013.8hPa NE 2.0mph /  3.2km/h 6.0mph /  9.7km/h 70% 0.00in /  0mm 244.0 W/m2
09:30 68.0 °F /  20 °C 57.4 °F /  14.1 °C 29.94in /  1013.8hPa NE 4.0mph /  6.4km/h 8.0mph /  12.9km/h 69% 0.00in /  0mm 276.0 W/m2
09:36 68.4 °F /  20.2 °C 57.4 °F /  14.1 °C 29.94in /  1013.8hPa East 2.0mph /  3.2km/h 6.0mph /  9.7km/h 68% 0.00in /  0mm 302.0 W/m2
09:42 68.7 °F /  20.4 °C 57.7 °F /  14.3 °C 29.94in /  1013.8hPa NNE 0.9mph /  1.4km/h 7.0mph /  11.3km/h 68% 0.00in /  0mm 302.0 W/m2
09:48 69.1 °F /  20.6 °C 58.1 °F /  14.5 °C 29.94in /  1013.8hPa SE 2.0mph /  3.2km/h 6.0mph /  9.7km/h 68% 0.00in /  0mm 323.0 W/m2
09:54 69.4 °F /  20.8 °C 57.9 °F /  14.4 °C 29.94in /  1013.8hPa SE 4.0mph /  6.4km/h 6.0mph /  9.7km/h 67% 0.00in /  0mm 374.0 W/m2
10:00 70.2 °F /  21.2 °C 58.3 °F /  14.6 °C 29.94in /  1013.8hPa NE 2.0mph /  3.2km/h 10.0mph /  16.1km/h 66% 0.00in /  0mm 387.0 W/m2
10:06 70.5 °F /  21.4 °C 57.7 °F /  14.3 °C 29.94in /  1013.8hPa NE 4.0mph /  6.4km/h 8.0mph /  12.9km/h 64% 0.00in /  0mm 408.0 W/m2
10:12 70.9 °F /  21.6 °C 58.5 °F /  14.7 °C 29.94in /  1013.8hPa East 0.9mph /  1.4km/h 8.0mph /  12.9km/h 65% 0.00in /  0mm 431.0 W/m2
10:18 71.4 °F /  21.9 °C 58.1 °F /  14.5 °C 29.94in /  1013.8hPa NE 4.9mph /  7.9km/h 11.0mph /  17.7km/h 63% 0.00in /  0mm 459.0 W/m2
10:24 72.0 °F /  22.2 °C 58.3 °F /  14.6 °C 29.93in /  1013.4hPa ENE 6.9mph /  11.1km/h 10.0mph /  16.1km/h 62% 0.00in /  0mm 515.0 W/m2
10:30 72.1 °F /  22.3 °C 57.9 °F /  14.4 °C 29.94in /  1013.8hPa NE 6.0mph /  9.7km/h 9.0mph /  14.5km/h 61% 0.00in /  0mm 480.0 W/m2
10:36 72.3 °F /  22.4 °C 58.1 °F /  14.5 °C 29.93in /  1013.4hPa East 2.9mph /  4.7km/h 6.0mph /  9.7km/h 61% 0.00in /  0mm 513.0 W/m2
10:42 72.9 °F /  22.7 °C 58.6 °F /  14.8 °C 29.93in /  1013.4hPa NE 4.0mph /  6.4km/h 5.0mph /  8km/h 61% 0.00in /  0mm 534.0 W/m2
10:48 73.2 °F /  22.9 °C 58.1 °F /  14.5 °C 29.93in /  1013.4hPa North 6.9mph /  11.1km/h 12.0mph /  19.3km/h 59% 0.00in /  0mm 536.0 W/m2
10:54 73.4 °F /  23 °C 58.3 °F /  14.6 °C 29.93in /  1013.4hPa NNE 2.9mph /  4.7km/h 12.0mph /  19.3km/h 59% 0.00in /  0mm 599.0 W/m2
11:00 73.9 °F /  23.3 °C 58.6 °F /  14.8 °C 29.93in /  1013.4hPa East 11.0mph /  17.7km/h 11.0mph /  17.7km/h 59% 0.00in /  0mm 575.0 W/m2
11:06 74.1 °F /  23.4 °C 58.5 °F /  14.7 °C 29.93in /  1013.4hPa NE 0.9mph /  1.4km/h 8.0mph /  12.9km/h 58% 0.00in /  0mm 555.0 W/m2
11:12 74.3 °F /  23.5 °C 58.6 °F /  14.8 °C 29.93in /  1013.4hPa NE 2.0mph /  3.2km/h 2.0mph /  3.2km/h 58% 0.00in /  0mm 608.0 W/m2
11:18 74.7 °F /  23.7 °C 57.4 °F /  14.1 °C 29.93in /  1013.4hPa NNE 4.0mph /  6.4km/h 8.0mph /  12.9km/h 55% 0.00in /  0mm 585.0 W/m2
11:24 75.0 °F /  23.9 °C 57.2 °F /  14 °C 29.93in /  1013.4hPa NNE 6.0mph /  9.7km/h 9.0mph /  14.5km/h 54% 0.00in /  0mm 589.0 W/m2
11:36 75.9 °F /  24.4 °C 58.1 °F /  14.5 °C 29.92in /  1013.1hPa ENE 10.1mph /  16.3km/h 10.1mph /  16.3km/h 54% 0.00in /  0mm 613.0 W/m2
11:38 76.1 °F /  24.5 °C 56.7 °F /  13.7 °C 29.92in /  1013.1hPa Calm   10.0mph /  16.1km/h 51% 0.00in /  0mm 617.0 W/m2
11:44 76.5 °F /  24.7 °C 56.5 °F /  13.6 °C 29.91in /  1012.8hPa NNE 4.9mph /  7.9km/h 8.0mph /  12.9km/h 50% 0.00in /  0mm 673.0 W/m2
11:50 76.6 °F /  24.8 °C 57.2 °F /  14 °C 29.91in /  1012.8hPa ENE 6.0mph /  9.7km/h 8.0mph /  12.9km/h 51% 0.00in /  0mm 679.0 W/m2
11:56 77.4 °F /  25.2 °C 56.1 °F /  13.4 °C 29.91in /  1012.8hPa ENE 2.0mph /  3.2km/h 4.0mph /  6.4km/h 48% 0.00in /  0mm 786.0 W/m2
12:02 77.7 °F /  25.4 °C 56.5 °F /  13.6 °C 29.91in /  1012.8hPa East 2.9mph /  4.7km/h 9.0mph /  14.5km/h 48% 0.00in /  0mm 362.0 W/m2
12:08 77.5 °F /  25.3 °C 55.8 °F /  13.2 °C 29.90in /  1012.4hPa ESE 2.9mph /  4.7km/h 4.0mph /  6.4km/h 47% 0.00in /  0mm 944.0 W/m2
12:14 78.3 °F /  25.7 °C 55.2 °F /  12.9 °C 29.90in /  1012.4hPa NNE 0.9mph /  1.4km/h 7.0mph /  11.3km/h 45% 0.00in /  0mm 1197.0 W/m2
12:20 78.6 °F /  25.9 °C 55.6 °F /  13.1 °C 29.90in /  1012.4hPa ESE 2.0mph /  3.2km/h 7.0mph /  11.3km/h 45% 0.00in /  0mm 817.0 W/m2
12:26 79.2 °F /  26.2 °C 53.4 °F /  11.9 °C 29.89in /  1012.1hPa NNE 4.9mph /  7.9km/h 7.0mph /  11.3km/h 41% 0.00in /  0mm 780.0 W/m2
12:32 79.9 °F /  26.6 °C 55.4 °F /  13 °C 29.89in /  1012.1hPa Calm   7.0mph /  11.3km/h 43% 0.00in /  0mm 726.0 W/m2
12:38 80.1 °F /  26.7 °C 55.6 °F /  13.1 °C 29.88in /  1011.7hPa SE 4.0mph /  6.4km/h 6.0mph /  9.7km/h 43% 0.00in /  0mm 990.0 W/m2
12:44 80.1 °F /  26.7 °C 54.3 °F /  12.4 °C 29.88in /  1011.7hPa NE 4.9mph /  7.9km/h 6.0mph /  9.7km/h 41% 0.00in /  0mm 650.0 W/m2
12:50 80.1 °F /  26.7 °C 52.9 °F /  11.6 °C 29.88in /  1011.7hPa Calm   6.0mph /  9.7km/h 39% 0.00in /  0mm 865.0 W/m2
12:56 80.6 °F /  27 °C 54.0 °F /  12.2 °C 29.87in /  1011.4hPa WSW 4.0mph /  6.4km/h 4.0mph /  6.4km/h 40% 0.00in /  0mm 1346.0 W/m2
13:02 80.6 °F /  27 °C 53.4 °F /  11.9 °C 29.87in /  1011.4hPa ENE 2.0mph /  3.2km/h 6.0mph /  9.7km/h 39% 0.00in /  0mm 1297.0 W/m2
13:09 81.0 °F /  27.2 °C 52.9 °F /  11.6 °C 29.87in /  1011.4hPa North 0.9mph /  1.4km/h 5.0mph /  8km/h 38% 0.00in /  0mm 366.0 W/m2
13:15 80.8 °F /  27.1 °C 54.9 °F /  12.7 °C 29.87in /  1011.4hPa NNE 0.9mph /  1.4km/h 7.0mph /  11.3km/h 41% 0.00in /  0mm 253.0 W/m2
13:21 79.9 °F /  26.6 °C 54.7 °F /  12.6 °C 29.86in /  1011.1hPa NW 2.9mph /  4.7km/h 5.0mph /  8km/h 42% 0.00in /  0mm 274.0 W/m2
13:27 79.2 °F /  26.2 °C 54.7 °F /  12.6 °C 29.86in /  1011.1hPa Calm   2.0mph /  3.2km/h 43% 0.00in /  0mm 330.0 W/m2
13:33 79.0 °F /  26.1 °C 55.8 °F /  13.2 °C 29.86in /  1011.1hPa Calm   3.0mph /  4.8km/h 45% 0.00in /  0mm 336.0 W/m2
13:39 78.6 °F /  25.9 °C 56.1 °F /  13.4 °C 29.85in /  1010.7hPa West 0.9mph /  1.4km/h 3.0mph /  4.8km/h 46% 0.00in /  0mm 306.0 W/m2
13:45 78.4 °F /  25.8 °C 55.4 °F /  13 °C 29.85in /  1010.7hPa SW 0.9mph /  1.4km/h 3.0mph /  4.8km/h 45% 0.00in /  0mm 311.0 W/m2
13:52 78.4 °F /  25.8 °C 54.7 °F /  12.6 °C 29.85in /  1010.7hPa Calm   4.0mph /  6.4km/h 44% 0.00in /  0mm 374.0 W/m2
13:58 78.3 °F /  25.7 °C 55.8 °F /  13.2 °C 29.85in /  1010.7hPa Calm   2.0mph /  3.2km/h 46% 0.00in /  0mm 309.0 W/m2
14:04 78.4 °F /  25.8 °C 55.9 °F /  13.3 °C 29.85in /  1010.7hPa West 2.0mph /  3.2km/h 2.0mph /  3.2km/h 46% 0.00in /  0mm 313.0 W/m2
14:10 78.3 °F /  25.7 °C 55.2 °F /  12.9 °C 29.85in /  1010.7hPa West 0.9mph /  1.4km/h 3.0mph /  4.8km/h 45% 0.00in /  0mm 330.0 W/m2
14:16 78.1 °F /  25.6 °C 55.0 °F /  12.8 °C 29.84in /  1010.4hPa West 2.0mph /  3.2km/h 4.0mph /  6.4km/h 45% 0.00in /  0mm 316.0 W/m2
14:22 77.7 °F /  25.4 °C 55.2 °F /  12.9 °C 29.84in /  1010.4hPa Calm   6.0mph /  9.7km/h 46% 0.00in /  0mm 338.0 W/m2
14:28 77.9 °F /  25.5 °C 55.4 °F /  13 °C 29.84in /  1010.4hPa NNW 0.9mph /  1.4km/h 5.0mph /  8km/h 46% 0.00in /  0mm 784.0 W/m2
14:34 79.0 °F /  26.1 °C 56.5 °F /  13.6 °C 29.84in /  1010.4hPa Calm   1.0mph /  1.6km/h 46% 0.00in /  0mm 1116.0 W/m2
14:40 79.3 °F /  26.3 °C 55.6 °F /  13.1 °C 29.84in /  1010.4hPa Calm   1.0mph /  1.6km/h 44% 0.00in /  0mm 294.0 W/m2
14:46 79.3 °F /  26.3 °C 54.9 °F /  12.7 °C 29.84in /  1010.4hPa Calm   4.0mph /  6.4km/h 43% 0.00in /  0mm 262.0 W/m2
14:52 79.3 °F /  26.3 °C 54.9 °F /  12.7 °C 29.83in /  1010hPa WSW 4.0mph /  6.4km/h 4.0mph /  6.4km/h 43% 0.00in /  0mm 281.0 W/m2
14:58 79.2 °F /  26.2 °C 55.4 °F /  13 °C 29.83in /  1010hPa Calm   3.0mph /  4.8km/h 44% 0.00in /  0mm 290.0 W/m2
15:05 79.0 °F /  26.1 °C 55.2 °F /  12.9 °C 29.83in /  1010hPa Calm   3.0mph /  4.8km/h 44% 0.00in /  0mm 322.0 W/m2
15:11 78.8 °F /  26 °C 54.5 °F /  12.5 °C 29.83in /  1010hPa NNW 2.0mph /  3.2km/h 3.0mph /  4.8km/h 43% 0.00in /  0mm 285.0 W/m2
15:17 79.0 °F /  26.1 °C 55.2 °F /  12.9 °C 29.83in /  1010hPa Calm   3.0mph /  4.8km/h 44% 0.00in /  0mm 281.0 W/m2
15:23 78.6 °F /  25.9 °C 54.9 °F /  12.7 °C 29.83in /  1010hPa Calm     44% 0.00in /  0mm 285.0 W/m2
15:29 78.6 °F /  25.9 °C 54.9 °F /  12.7 °C 29.83in /  1010hPa North 2.0mph /  3.2km/h 4.0mph /  6.4km/h 44% 0.00in /  0mm 290.0 W/m2
15:35 78.6 °F /  25.9 °C 54.3 °F /  12.4 °C 29.83in /  1010hPa NW 4.0mph /  6.4km/h 5.0mph /  8km/h 43% 0.00in /  0mm 330.0 W/m2
15:41 79.0 °F /  26.1 °C 54.5 °F /  12.5 °C 29.82in /  1009.7hPa Calm   2.0mph /  3.2km/h 43% 0.00in /  0mm 429.0 W/m2
15:47 79.2 °F /  26.2 °C 54.7 °F /  12.6 °C 29.82in /  1009.7hPa Calm   3.0mph /  4.8km/h 43% 0.00in /  0mm 413.0 W/m2
15:53 79.7 °F /  26.5 °C 54.5 °F /  12.5 °C 29.82in /  1009.7hPa NW 0.9mph /  1.4km/h 2.0mph /  3.2km/h 42% 0.00in /  0mm 392.0 W/m2
15:59 79.9 °F /  26.6 °C 55.9 °F /  13.3 °C 29.83in /  1010hPa East 8.9mph /  14.3km/h 16.0mph /  25.7km/h 44% 0.00in /  0mm 230.0 W/m2
16:05 78.3 °F /  25.7 °C 56.3 °F /  13.5 °C 29.83in /  1010hPa SE 8.9mph /  14.3km/h 14.0mph /  22.5km/h 47% 0.00in /  0mm 216.0 W/m2
16:11 76.6 °F /  24.8 °C 53.8 °F /  12.1 °C 29.83in /  1010hPa SE 8.1mph /  13km/h 14.0mph /  22.5km/h 45% 0.00in /  0mm 223.0 W/m2
16:18 75.9 °F /  24.4 °C 51.8 °F /  11 °C 29.82in /  1009.7hPa SSE 4.0mph /  6.4km/h 9.0mph /  14.5km/h 43% 0.00in /  0mm 466.0 W/m2
16:24 75.7 °F /  24.3 °C 50.4 °F /  10.2 °C 29.82in /  1009.7hPa SE 6.0mph /  9.7km/h 8.0mph /  12.9km/h 41% 0.00in /  0mm 343.0 W/m2
16:30 76.1 °F /  24.5 °C 50.7 °F /  10.4 °C 29.82in /  1009.7hPa SSE 6.0mph /  9.7km/h 10.0mph /  16.1km/h 41% 0.00in /  0mm 346.0 W/m2
16:36 76.8 °F /  24.9 °C 53.2 °F /  11.8 °C 29.82in /  1009.7hPa East 4.0mph /  6.4km/h 8.0mph /  12.9km/h 44% 0.00in /  0mm 452.0 W/m2
16:42 77.7 °F /  25.4 °C 54.7 °F /  12.6 °C 29.82in /  1009.7hPa East 4.9mph /  7.9km/h 5.0mph /  8km/h 45% 0.00in /  0mm 325.0 W/m2
16:48 78.3 °F /  25.7 °C 55.2 °F /  12.9 °C 29.82in /  1009.7hPa ESE 2.9mph /  4.7km/h 8.0mph /  12.9km/h 45% 0.00in /  0mm 552.0 W/m2
16:54 78.8 °F /  26 °C 54.5 °F /  12.5 °C 29.82in /  1009.7hPa East 0.9mph /  1.4km/h 5.0mph /  8km/h 43% 0.00in /  0mm 199.0 W/m2
17:00 78.6 °F /  25.9 °C 52.9 °F /  11.6 °C 29.82in /  1009.7hPa SE 0.9mph /  1.4km/h 7.0mph /  11.3km/h 41% 0.00in /  0mm 181.0 W/m2
17:07 78.3 °F /  25.7 °C 53.2 °F /  11.8 °C 29.81in /  1009.4hPa ESE 2.0mph /  3.2km/h 4.0mph /  6.4km/h 42% 0.00in /  0mm 446.0 W/m2
17:13 78.6 °F /  25.9 °C 54.9 °F /  12.7 °C 29.82in /  1009.7hPa North 2.0mph /  3.2km/h 2.0mph /  3.2km/h 44% 0.00in /  0mm 496.0 W/m2
17:19 79.5 °F /  26.4 °C 53.8 °F /  12.1 °C 29.81in /  1009.4hPa North 2.9mph /  4.7km/h 7.0mph /  11.3km/h 41% 0.00in /  0mm 468.0 W/m2
17:25 80.1 °F /  26.7 °C 52.9 °F /  11.6 °C 29.82in /  1009.7hPa NNW 4.0mph /  6.4km/h 5.0mph /  8km/h 39% 0.00in /  0mm 427.0 W/m2
17:31 80.1 °F /  26.7 °C 51.4 °F /  10.8 °C 29.82in /  1009.7hPa NE 4.0mph /  6.4km/h 5.0mph /  8km/h 37% 0.00in /  0mm 144.0 W/m2
17:37 79.3 °F /  26.3 °C 55.6 °F /  13.1 °C 29.83in /  1010hPa NNE 6.0mph /  9.7km/h 10.0mph /  16.1km/h 44% 0.00in /  0mm 163.0 W/m2
17:43 78.1 °F /  25.6 °C 55.6 °F /  13.1 °C 29.83in /  1010hPa NE 8.1mph /  13km/h 10.0mph /  16.1km/h 46% 0.00in /  0mm 202.0 W/m2
17:50 77.4 °F /  25.2 °C 55.6 °F /  13.1 °C 29.83in /  1010hPa NNW 8.1mph /  13km/h 8.1mph /  13km/h 47% 0.00in /  0mm 297.0 W/m2
17:56 77.4 °F /  25.2 °C 55.6 °F /  13.1 °C 29.83in /  1010hPa NNE 2.9mph /  4.7km/h 8.0mph /  12.9km/h 47% 0.00in /  0mm 276.0 W/m2
18:02 77.2 °F /  25.1 °C 55.4 °F /  13 °C 29.83in /  1010hPa NNW 4.0mph /  6.4km/h 7.0mph /  11.3km/h 47% 0.00in /  0mm 236.0 W/m2
18:08 76.8 °F /  24.9 °C 54.5 °F /  12.5 °C 29.83in /  1010hPa WNW 2.0mph /  3.2km/h 8.0mph /  12.9km/h 46% 0.00in /  0mm 200.0 W/m2
18:14 76.5 °F /  24.7 °C 55.4 °F /  13 °C 29.83in /  1010hPa NNW 2.9mph /  4.7km/h 7.0mph /  11.3km/h 48% 0.00in /  0mm 72.0 W/m2
18:20 75.6 °F /  24.2 °C 55.0 °F /  12.8 °C 29.83in /  1010hPa NNW 2.9mph /  4.7km/h 7.0mph /  11.3km/h 49% 0.00in /  0mm 42.0 W/m2
18:26 74.7 °F /  23.7 °C 54.9 °F /  12.7 °C 29.83in /  1010hPa North 2.0mph /  3.2km/h 6.0mph /  9.7km/h 50% 0.00in /  0mm 35.0 W/m2
18:32 73.9 °F /  23.3 °C 54.7 °F /  12.6 °C 29.83in /  1010hPa NNE 2.9mph /  4.7km/h 4.0mph /  6.4km/h 51% 0.00in /  0mm 28.0 W/m2
18:38 73.6 °F /  23.1 °C 54.3 °F /  12.4 °C 29.83in /  1010hPa NE 0.9mph /  1.4km/h 4.0mph /  6.4km/h 51% 0.00in /  0mm 14.0 W/m2
18:44 73.0 °F /  22.8 °C 54.9 °F /  12.7 °C 29.83in /  1010hPa Calm   1.0mph /  1.6km/h 53% 0.00in /  0mm 11.0 W/m2
18:50 72.9 °F /  22.7 °C 54.7 °F /  12.6 °C 29.83in /  1010hPa Calm     53% 0.00in /  0mm 7.0 W/m2
18:56 72.7 °F /  22.6 °C 55.0 °F /  12.8 °C 29.83in /  1010hPa Calm     54% 0.00in /  0mm 0.0 W/m2
19:02 72.5 °F /  22.5 °C 54.9 °F /  12.7 °C 29.83in /  1010hPa Calm     54% 0.00in /  0mm 0.0 W/m2
19:08 72.3 °F /  22.4 °C 54.7 °F /  12.6 °C 29.83in /  1010hPa Calm     54% 0.00in /  0mm 0.0 W/m2
19:15 72.1 °F /  22.3 °C 55.0 °F /  12.8 °C 29.83in /  1010hPa Calm   1.0mph /  1.6km/h 55% 0.00in /  0mm 0.0 W/m2
19:21 71.8 °F /  22.1 °C 54.7 °F /  12.6 °C 29.83in /  1010hPa Calm   1.0mph /  1.6km/h 55% 0.00in /  0mm 0.0 W/m2
19:27 71.4 °F /  21.9 °C 54.9 °F /  12.7 °C 29.82in /  1009.7hPa Calm   1.0mph /  1.6km/h 56% 0.00in /  0mm 0.0 W/m2
19:33 71.2 °F /  21.8 °C 54.7 °F /  12.6 °C 29.83in /  1010hPa Calm   1.0mph /  1.6km/h 56% 0.00in /  0mm 0.0 W/m2
19:39 71.1 °F /  21.7 °C 55.6 °F /  13.1 °C 29.83in /  1010hPa Calm   1.0mph /  1.6km/h 58% 0.00in /  0mm 0.0 W/m2
19:45 70.7 °F /  21.5 °C 55.6 °F /  13.1 °C 29.83in /  1010hPa Calm     59% 0.00in /  0mm 0.0 W/m2
19:51 70.3 °F /  21.3 °C 56.3 °F /  13.5 °C 29.83in /  1010hPa South 0.9mph /  1.4km/h 1.0mph /  1.6km/h 61% 0.00in /  0mm 0.0 W/m2
19:58 70.0 °F /  21.1 °C 56.8 °F /  13.8 °C 29.83in /  1010hPa Calm   4.0mph /  6.4km/h 63% 0.00in /  0mm 0.0 W/m2
20:04 69.4 °F /  20.8 °C 56.7 °F /  13.7 °C 29.83in /  1010hPa Calm   2.0mph /  3.2km/h 64% 0.00in /  0mm 0.0 W/m2
20:10 69.3 °F /  20.7 °C 56.5 °F /  13.6 °C 29.83in /  1010hPa Calm     64% 0.00in /  0mm 0.0 W/m2
20:16 69.1 °F /  20.6 °C 57.2 °F /  14 °C 29.83in /  1010hPa SE 0.9mph /  1.4km/h 1.0mph /  1.6km/h 66% 0.00in /  0mm 0.0 W/m2
20:22 68.7 °F /  20.4 °C 57.4 °F /  14.1 °C 29.84in /  1010.4hPa SSE 0.9mph /  1.4km/h 1.0mph /  1.6km/h 67% 0.00in /  0mm 0.0 W/m2
20:28 68.4 °F /  20.2 °C 57.0 °F /  13.9 °C 29.84in /  1010.4hPa Calm   1.0mph /  1.6km/h 67% 0.00in /  0mm 0.0 W/m2
20:34 68.2 °F /  20.1 °C 55.9 °F /  13.3 °C 29.84in /  1010.4hPa Calm     65% 0.00in /  0mm 0.0 W/m2
20:41 68.0 °F /  20 °C 56.7 °F /  13.7 °C 29.84in /  1010.4hPa Calm     67% 0.00in /  0mm 0.0 W/m2
20:47 67.8 °F /  19.9 °C 55.6 °F /  13.1 °C 29.84in /  1010.4hPa Calm   1.0mph /  1.6km/h 65% 0.00in /  0mm 0.0 W/m2
20:53 67.5 °F /  19.7 °C 55.2 °F /  12.9 °C 29.85in /  1010.7hPa Calm   1.0mph /  1.6km/h 65% 0.00in /  0mm 0.0 W/m2
20:59 67.3 °F /  19.6 °C 55.6 °F /  13.1 °C 29.85in /  1010.7hPa Calm   1.0mph /  1.6km/h 66% 0.00in /  0mm 0.0 W/m2
21:05 66.9 °F /  19.4 °C 56.5 °F /  13.6 °C 29.85in /  1010.7hPa Calm     69% 0.00in /  0mm 0.0 W/m2
21:11 66.6 °F /  19.2 °C 56.5 °F /  13.6 °C 29.85in /  1010.7hPa Calm   1.0mph /  1.6km/h 70% 0.00in /  0mm 0.0 W/m2
21:17 66.4 °F /  19.1 °C 56.7 °F /  13.7 °C 29.85in /  1010.7hPa Calm   1.0mph /  1.6km/h 71% 0.00in /  0mm 0.0 W/m2
21:24 65.8 °F /  18.8 °C 56.1 °F /  13.4 °C 29.85in /  1010.7hPa Calm     71% 0.00in /  0mm 0.0 W/m2
21:30 65.7 °F /  18.7 °C 56.3 °F /  13.5 °C 29.85in /  1010.7hPa ESE 0.9mph /  1.4km/h 1.0mph /  1.6km/h 72% 0.00in /  0mm 0.0 W/m2
21:32 65.7 °F /  18.7 °C 56.3 °F /  13.5 °C 29.85in /  1010.7hPa SE 0.9mph /  1.4km/h 3.0mph /  4.8km/h 72% 0.00in /  0mm 0.0 W/m2
21:38 65.5 °F /  18.6 °C 56.3 °F /  13.5 °C 29.86in /  1011.1hPa Calm   1.0mph /  1.6km/h 72% 0.00in /  0mm 0.0 W/m2
21:44 65.3 °F /  18.5 °C 56.1 °F /  13.4 °C 29.85in /  1010.7hPa Calm   3.0mph /  4.8km/h 72% 0.00in /  0mm 0.0 W/m2
21:46 65.1 °F /  18.4 °C 55.9 °F /  13.3 °C 29.86in /  1011.1hPa Calm   1.0mph /  1.6km/h 72% 0.00in /  0mm 0.0 W/m2
21:52 65.1 °F /  18.4 °C 55.9 °F /  13.3 °C 29.86in /  1011.1hPa SE 4.0mph /  6.4km/h 4.0mph /  6.4km/h 72% 0.00in /  0mm 0.0 W/m2
21:54 65.1 °F /  18.4 °C 55.9 °F /  13.3 °C 29.86in /  1011.1hPa Calm   3.0mph /  4.8km/h 72% 0.00in /  0mm 0.0 W/m2
22:00 64.9 °F /  18.3 °C 56.1 °F /  13.4 °C 29.86in /  1011.1hPa Calm   2.0mph /  3.2km/h 73% 0.00in /  0mm 0.0 W/m2
22:08 64.6 °F /  18.1 °C 55.8 °F /  13.2 °C 29.86in /  1011.1hPa ESE 0.9mph /  1.4km/h 1.0mph /  1.6km/h 73% 0.00in /  0mm 0.0 W/m2
22:15 64.2 °F /  17.9 °C 55.4 °F /  13 °C 29.86in /  1011.1hPa Calm   1.0mph /  1.6km/h 73% 0.00in /  0mm 0.0 W/m2
22:21 64.0 °F /  17.8 °C 55.2 °F /  12.9 °C 29.87in /  1011.4hPa ENE 0.9mph /  1.4km/h 2.0mph /  3.2km/h 73% 0.00in /  0mm 0.0 W/m2
22:27 63.9 °F /  17.7 °C 55.0 °F /  12.8 °C 29.87in /  1011.4hPa Calm   1.0mph /  1.6km/h 73% 0.00in /  0mm 0.0 W/m2
22:29 63.9 °F /  17.7 °C 55.0 °F /  12.8 °C 29.87in /  1011.4hPa Calm   3.0mph /  4.8km/h 73% 0.00in /  0mm 0.0 W/m2
22:35 63.7 °F /  17.6 °C 55.2 °F /  12.9 °C 29.87in /  1011.4hPa Calm   1.0mph /  1.6km/h 74% 0.00in /  0mm 0.0 W/m2
22:41 63.7 °F /  17.6 °C 55.2 °F /  12.9 °C 29.87in /  1011.4hPa East 0.9mph /  1.4km/h 2.0mph /  3.2km/h 74% 0.00in /  0mm 0.0 W/m2
22:53 63.3 °F /  17.4 °C 54.9 °F /  12.7 °C 29.87in /  1011.4hPa Calm   1.0mph /  1.6km/h 74% 0.00in /  0mm 0.0 W/m2
22:59 63.5 °F /  17.5 °C 54.7 °F /  12.6 °C 29.88in /  1011.7hPa East 0.9mph /  1.4km/h 2.0mph /  3.2km/h 73% 0.00in /  0mm 0.0 W/m2
23:06 63.7 °F /  17.6 °C 54.9 °F /  12.7 °C 29.88in /  1011.7hPa Calm   3.0mph /  4.8km/h 73% 0.00in /  0mm 0.0 W/m2
23:08 63.7 °F /  17.6 °C 54.9 °F /  12.7 °C 29.88in /  1011.7hPa SSE 2.0mph /  3.2km/h 4.0mph /  6.4km/h 73% 0.00in /  0mm 0.0 W/m2
23:12 63.7 °F /  17.6 °C 54.9 °F /  12.7 °C 29.88in /  1011.7hPa Calm   3.0mph /  4.8km/h 73% 0.00in /  0mm 0.0 W/m2
23:18 63.7 °F /  17.6 °C 54.9 °F /  12.7 °C 29.88in /  1011.7hPa Calm   1.0mph /  1.6km/h 73% 0.00in /  0mm 0.0 W/m2
23:24 63.7 °F /  17.6 °C 54.5 °F /  12.5 °C 29.88in /  1011.7hPa Calm     72% 0.00in /  0mm 0.0 W/m2
23:30 63.7 °F /  17.6 °C 54.5 °F /  12.5 °C 29.88in /  1011.7hPa Calm   1.0mph /  1.6km/h 72% 0.00in /  0mm 0.0 W/m2
23:36 63.9 °F /  17.7 °C 54.3 °F /  12.4 °C 29.88in /  1011.7hPa Calm   2.0mph /  3.2km/h 71% 0.00in /  0mm 0.0 W/m2
23:42 63.9 °F /  17.7 °C 54.3 °F /  12.4 °C 29.88in /  1011.7hPa Calm   1.0mph /  1.6km/h 71% 0.00in /  0mm 0.0 W/m2
23:49 64.0 °F /  17.8 °C 54.5 °F /  12.5 °C 29.88in /  1011.7hPa Calm   1.0mph /  1.6km/h 71% 0.00in /  0mm 0.0 W/m2
23:55 64.0 °F /  17.8 °C 54.1 °F /  12.3 °C 29.88in /  1011.7hPa Calm   1.0mph /  1.6km/h 70% 0.00in /  0mm 0.0 W/m2
Olympia, Windhoek, Namibia
Compliments of Weather Underground - 3 mb